createdAt,value
2023-02-24T00:01:59.990Z,98096.72
2023-02-24T00:04:32.973Z,98088.28
2023-02-24T00:07:00.175Z,98085.53
2023-02-24T00:09:28.221Z,98092.16
2023-02-24T00:12:01.199Z,98090.13
2023-02-24T00:14:33.850Z,98085.47
2023-02-24T00:17:01.132Z,98082.19
2023-02-24T00:19:32.744Z,98083.81
2023-02-24T00:22:00.748Z,98074.63
2023-02-24T00:24:27.892Z,98077.22
2023-02-24T00:26:57.090Z,98080.59
2023-02-24T00:29:24.246Z,98077.97
2023-02-24T00:31:59.201Z,98088.94
2023-02-24T00:34:27.353Z,98078.91
2023-02-24T00:36:54.148Z,98083.63
2023-02-24T00:39:30.811Z,98078.28
2023-02-24T00:42:06.889Z,98086.63
2023-02-24T00:44:41.677Z,98074.00
2023-02-24T00:47:10.497Z,98082.34
2023-02-24T00:49:42.762Z,98075.28
2023-02-24T00:52:13.724Z,98076.09
2023-02-24T00:54:44.342Z,98080.59
2023-02-24T00:57:11.832Z,98079.53
2023-02-24T00:59:39.040Z,98070.88
2023-02-24T01:02:07.256Z,98070.44
2023-02-24T01:04:34.926Z,98062.16
2023-02-24T01:07:01.859Z,98076.50
2023-02-24T01:09:30.881Z,98077.50
2023-02-24T01:12:16.572Z,98075.28
2023-02-24T01:14:47.008Z,98075.88
2023-02-24T01:17:14.498Z,98064.69
2023-02-24T01:19:41.021Z,98065.16
2023-02-24T01:22:10.077Z,98058.75
2023-02-24T01:24:41.267Z,98062.06
2023-02-24T01:27:08.410Z,98055.91
2023-02-24T01:29:39.414Z,98061.53
2023-02-24T01:32:07.676Z,98054.75
2023-02-24T01:34:35.096Z,98065.25
2023-02-24T01:37:01.945Z,98057.88
2023-02-24T01:39:28.458Z,98047.38
2023-02-24T01:41:54.921Z,98051.00
2023-02-24T01:44:25.219Z,98048.75
2023-02-24T01:46:53.621Z,98042.03
2023-02-24T01:49:36.978Z,98040.88
2023-02-24T01:52:18.086Z,98047.22
2023-02-24T01:54:50.282Z,98038.63
2023-02-24T01:57:19.914Z,98045.22
2023-02-24T01:59:50.043Z,98044.91
2023-02-24T02:02:18.357Z,98045.13
2023-02-24T02:04:58.526Z,98049.88
2023-02-24T02:07:27.638Z,98048.63
2023-02-24T02:09:55.104Z,98040.72
2023-02-24T02:12:22.680Z,98050.88
2023-02-24T02:14:53.716Z,98051.69
2023-02-24T02:17:43.244Z,98046.16
2023-02-24T02:20:15.800Z,98058.81
2023-02-24T02:23:04.359Z,98052.91
2023-02-24T02:25:36.538Z,98048.06
2023-02-24T02:29:01.670Z,98054.94
2023-02-24T02:31:29.298Z,98048.06
2023-02-24T02:34:31.809Z,98044.25
2023-02-24T02:37:27.024Z,98045.63
2023-02-24T02:40:16.181Z,98041.38
2023-02-24T02:43:18.789Z,98039.69
2023-02-24T02:45:52.323Z,98041.88
2023-02-24T02:48:22.648Z,98042.72
2023-02-24T02:50:55.613Z,98037.59
2023-02-24T02:53:31.572Z,98039.31
2023-02-24T02:56:22.089Z,98034.66
2023-02-24T02:58:53.957Z,98030.97
2023-02-24T03:01:25.310Z,98034.22
2023-02-24T03:03:56.014Z,98033.25
2023-02-24T03:06:30.235Z,98023.47
2023-02-24T03:09:18.010Z,98023.81
2023-02-24T03:11:49.292Z,98014.94
2023-02-24T03:14:20.351Z,98017.13
2023-02-24T03:16:49.306Z,98019.88
2023-02-24T03:19:21.021Z,98020.50
2023-02-24T03:21:58.194Z,98015.88
2023-02-24T03:24:24.658Z,98016.13
2023-02-24T03:26:58.495Z,98013.25
2023-02-24T03:29:38.883Z,98007.75
2023-02-24T03:32:12.743Z,98016.81
2023-02-24T03:34:51.124Z,98009.03
2023-02-24T03:37:25.609Z,98012.53
2023-02-24T03:39:57.732Z,98010.78
2023-02-24T03:42:28.662Z,98006.13
2023-02-24T03:44:58.249Z,98013.44
2023-02-24T03:47:25.975Z,98010.06
2023-02-24T03:49:53.155Z,98006.69
2023-02-24T03:52:34.884Z,98007.97
2023-02-24T03:55:16.815Z,98011.03
2023-02-24T03:58:12.782Z,98011.28
2023-02-24T04:00:48.499Z,98018.13
2023-02-24T04:03:39.487Z,98014.75
2023-02-24T04:06:38.332Z,98017.06
2023-02-24T04:09:36.818Z,98006.97
2023-02-24T04:12:27.070Z,98000.13
2023-02-24T04:14:57.285Z,97997.91
2023-02-24T04:17:32.147Z,98000.13
2023-02-24T04:20:01.414Z,97995.94
2023-02-24T04:22:29.413Z,97989.53
2023-02-24T04:24:59.799Z,97986.19
2023-02-24T04:27:28.252Z,97976.19
2023-02-24T04:30:00.074Z,97988.63
2023-02-24T04:32:29.478Z,97993.38
2023-02-24T04:35:06.941Z,97992.22
2023-02-24T04:37:37.329Z,97996.63
2023-02-24T04:40:13.424Z,97987.00
2023-02-24T04:42:49.350Z,97983.28
2023-02-24T04:45:28.163Z,97986.41
2023-02-24T04:47:58.016Z,97990.81
2023-02-24T04:50:26.012Z,97985.16
2023-02-24T04:53:01.336Z,97981.78
2023-02-24T04:55:32.976Z,97983.25
2023-02-24T04:58:01.035Z,97971.31
2023-02-24T05:00:33.456Z,97966.91
2023-02-24T05:03:01.844Z,97970.25
2023-02-24T05:05:28.787Z,97965.03
2023-02-24T05:07:57.585Z,97965.75
2023-02-24T05:10:28.140Z,97956.53
2023-02-24T05:12:58.265Z,97964.09
2023-02-24T05:15:31.249Z,97950.00
2023-02-24T05:18:07.819Z,97955.09
2023-02-24T05:21:00.358Z,97950.97
2023-02-24T05:23:39.370Z,97942.19
2023-02-24T05:26:08.579Z,97944.44
2023-02-24T05:28:40.546Z,97937.91
2023-02-24T05:31:15.042Z,97927.88
2023-02-24T05:33:43.848Z,97934.59
2023-02-24T05:36:15.196Z,97929.88
2023-02-24T05:38:41.893Z,97926.75
2023-02-24T05:41:17.011Z,97920.22
2023-02-24T05:43:53.298Z,97917.13
2023-02-24T05:46:20.437Z,97918.47
2023-02-24T05:48:51.203Z,97909.09
2023-02-24T05:51:17.725Z,97901.59
2023-02-24T05:53:44.241Z,97906.13
2023-02-24T05:56:11.114Z,97905.09
2023-02-24T05:58:39.301Z,97903.25
2023-02-24T06:01:16.166Z,97904.50
2023-02-24T06:03:47.895Z,97905.44
2023-02-24T06:06:17.745Z,97911.38
2023-02-24T06:08:50.916Z,97910.91
2023-02-24T06:11:20.672Z,97915.09
2023-02-24T06:13:48.059Z,97919.63
2023-02-24T06:16:17.150Z,97909.06
2023-02-24T06:18:47.893Z,97908.00
2023-02-24T06:21:15.238Z,97906.69
2023-02-24T06:23:41.747Z,97906.50
2023-02-24T06:26:19.205Z,97902.19
2023-02-24T06:28:47.998Z,97898.25
2023-02-24T06:31:15.171Z,97899.63
2023-02-24T06:33:42.098Z,97886.88
2023-02-24T06:36:09.085Z,97891.75
2023-02-24T06:38:36.967Z,97895.69
2023-02-24T06:41:10.721Z,97898.16
2023-02-24T06:43:43.223Z,97903.97
2023-02-24T06:46:11.979Z,97905.13
2023-02-24T06:48:38.805Z,97892.34
2023-02-24T06:51:06.662Z,97883.28
2023-02-24T06:53:35.895Z,97885.16
2023-02-24T06:56:07.277Z,97885.03
2023-02-24T06:58:33.923Z,97894.22
2023-02-24T07:01:02.644Z,97885.84
2023-02-24T07:03:47.202Z,97889.56
2023-02-24T07:06:28.582Z,97901.16
2023-02-24T07:08:58.337Z,97899.50
2023-02-24T07:11:25.932Z,97889.28
2023-02-24T07:13:54.593Z,97899.78
2023-02-24T07:16:25.686Z,97893.47
2023-02-24T07:18:56.966Z,97892.41
2023-02-24T07:21:25.533Z,97894.53
2023-02-24T07:23:58.912Z,97879.97
2023-02-24T07:26:27.873Z,97878.31
2023-02-24T07:28:55.211Z,97877.84
2023-02-24T07:31:24.458Z,97863.31
2023-02-24T07:33:57.281Z,97873.91
2023-02-24T07:36:24.824Z,97875.03
2023-02-24T07:38:53.946Z,97882.94
2023-02-24T07:41:23.179Z,97882.81
2023-02-24T07:43:51.848Z,97879.91
2023-02-24T07:46:24.633Z,97874.09
2023-02-24T07:48:56.141Z,97870.63
2023-02-24T07:51:25.908Z,97863.56
2023-02-24T07:53:58.926Z,97857.66
2023-02-24T07:56:27.424Z,97862.00
2023-02-24T07:58:59.302Z,97864.81
2023-02-24T08:01:38.761Z,97866.72
2023-02-24T08:04:08.174Z,97858.19
2023-02-24T08:06:46.203Z,97854.06
2023-02-24T08:09:42.860Z,97842.75
2023-02-24T08:12:09.505Z,97842.66
2023-02-24T08:14:44.484Z,97836.59
2023-02-24T08:17:12.175Z,97837.69
2023-02-24T08:19:41.680Z,97829.09
2023-02-24T08:22:20.933Z,97833.06
2023-02-24T08:24:51.041Z,97830.59
2023-02-24T08:27:20.258Z,97838.84
2023-02-24T08:30:18.043Z,97830.25
2023-02-24T08:32:45.015Z,97828.25
2023-02-24T08:35:17.133Z,97821.50
2023-02-24T08:37:49.116Z,97818.13
2023-02-24T08:40:34.300Z,97810.97
2023-02-24T08:43:16.419Z,97802.88
2023-02-24T08:45:51.895Z,97799.94
2023-02-24T08:48:32.293Z,97800.06
2023-02-24T08:51:02.467Z,97803.34
2023-02-24T08:53:31.548Z,97795.31
2023-02-24T08:56:00.470Z,97793.63
2023-02-24T08:58:27.122Z,97791.59
2023-02-24T09:00:59.505Z,97794.31
2023-02-24T09:03:28.902Z,97794.88
2023-02-24T09:05:58.146Z,97801.75
2023-02-24T09:08:24.654Z,97806.31
2023-02-24T09:10:52.068Z,97796.94
2023-02-24T09:13:18.973Z,97797.50
2023-02-24T09:15:45.482Z,97795.31
2023-02-24T09:18:14.445Z,97789.34
2023-02-24T09:20:56.402Z,97780.97
2023-02-24T09:23:29.886Z,97786.00
2023-02-24T09:25:57.181Z,97774.34
2023-02-24T09:28:27.874Z,97764.22
2023-02-24T09:30:57.457Z,97765.72
2023-02-24T09:33:41.196Z,97762.25
2023-02-24T09:36:13.173Z,97768.41
2023-02-24T09:38:59.525Z,97756.94
2023-02-24T09:42:18.421Z,97756.22
2023-02-24T09:44:52.674Z,97762.25
2023-02-24T09:47:31.150Z,97760.34
2023-02-24T09:50:04.520Z,97754.78
2023-02-24T09:52:41.746Z,97755.78
2023-02-24T09:55:25.086Z,97745.16
2023-02-24T09:58:18.818Z,97731.75
2023-02-24T10:01:21.117Z,97729.06
2023-02-24T10:04:11.658Z,97716.97
2023-02-24T10:06:49.324Z,97707.63
2023-02-24T10:09:49.248Z,97716.22
2023-02-24T10:12:18.231Z,97721.75
2023-02-24T10:15:17.222Z,97722.56
2023-02-24T10:17:55.382Z,97719.13
2023-02-24T10:20:39.313Z,97715.47
2023-02-24T10:23:29.688Z,97708.88
2023-02-24T10:26:06.809Z,97713.97
2023-02-24T10:28:46.316Z,97713.13
2023-02-24T10:31:27.031Z,97703.53
2023-02-24T10:34:01.729Z,97696.22
2023-02-24T10:36:35.360Z,97697.13
2023-02-24T10:39:17.309Z,97689.63
2023-02-24T10:41:46.825Z,97692.25
2023-02-24T10:44:20.820Z,97684.94
2023-02-24T10:46:47.900Z,97679.66
2023-02-24T10:49:16.860Z,97687.00
2023-02-24T10:51:51.234Z,97685.72
2023-02-24T10:54:34.620Z,97682.66
2023-02-24T10:57:15.456Z,97677.84
2023-02-24T11:00:16.105Z,97675.41
2023-02-24T11:02:57.627Z,97678.84
2023-02-24T11:05:27.326Z,97672.91
2023-02-24T11:08:11.080Z,97667.72
2023-02-24T11:10:58.723Z,97661.84
2023-02-24T11:13:45.680Z,97653.53
2023-02-24T11:16:31.013Z,97651.78
2023-02-24T11:18:57.969Z,97640.41
2023-02-24T11:21:26.533Z,97636.91
2023-02-24T11:23:58.485Z,97629.16
2023-02-24T11:26:43.647Z,97629.03
2023-02-24T11:29:31.368Z,97625.34
2023-02-24T11:32:22.187Z,97620.13
2023-02-24T11:35:12.622Z,97616.34
2023-02-24T11:37:53.871Z,97612.31
2023-02-24T11:40:25.647Z,97604.31
2023-02-24T11:43:04.200Z,97602.22
2023-02-24T11:45:51.672Z,97592.47
2023-02-24T11:48:21.086Z,97590.69
2023-02-24T11:50:53.833Z,97580.25
2023-02-24T11:53:29.195Z,97584.88
2023-02-24T11:56:26.201Z,97564.78
2023-02-24T11:59:18.952Z,97562.56
2023-02-24T12:01:48.369Z,97555.34
2023-02-24T12:04:37.305Z,97558.91
2023-02-24T12:07:25.267Z,97545.75
2023-02-24T12:10:16.678Z,97545.44
2023-02-24T12:12:46.649Z,97538.19
2023-02-24T12:15:25.268Z,97534.41
2023-02-24T12:18:18.055Z,97535.06
2023-02-24T12:20:52.692Z,97531.56
2023-02-24T12:23:39.541Z,97534.44
2023-02-24T12:26:18.235Z,97535.03
2023-02-24T12:28:58.886Z,97515.25
2023-02-24T12:31:54.532Z,97521.22
2023-02-24T12:34:30.122Z,97520.84
2023-02-24T12:37:16.716Z,97510.78
2023-02-24T12:40:12.741Z,97522.13
2023-02-24T12:43:17.150Z,97504.03
2023-02-24T12:45:52.526Z,97507.88
2023-02-24T12:48:50.430Z,97502.72
2023-02-24T12:51:21.408Z,97495.59
2023-02-24T12:54:04.949Z,97497.38
2023-02-24T12:56:45.613Z,97494.84
2023-02-24T12:59:19.224Z,97488.47
2023-02-24T13:01:55.150Z,97478.84
2023-02-24T13:04:40.333Z,97489.03
2023-02-24T13:07:19.353Z,97478.38
2023-02-24T13:10:09.537Z,97473.25
2023-02-24T13:12:57.707Z,97470.09
2023-02-24T13:15:27.851Z,97461.63
2023-02-24T13:17:57.955Z,97460.31
2023-02-24T13:20:34.221Z,97456.53
2023-02-24T13:23:03.478Z,97452.56
2023-02-24T13:25:38.429Z,97451.13
2023-02-24T13:28:21.372Z,97432.94
2023-02-24T13:30:58.289Z,97434.41
2023-02-24T13:33:30.346Z,97432.69
2023-02-24T13:36:13.475Z,97422.69
2023-02-24T13:38:41.977Z,97418.56
2023-02-24T13:41:17.831Z,97421.63
2023-02-24T13:43:53.518Z,97417.06
2023-02-24T13:46:20.095Z,97410.19
2023-02-24T13:48:59.718Z,97403.84
2023-02-24T13:51:52.478Z,97415.03
2023-02-24T13:54:21.861Z,97409.13
2023-02-24T13:56:57.350Z,97405.91
2023-02-24T13:59:35.689Z,97405.44
2023-02-24T14:02:19.630Z,97403.34
2023-02-24T14:04:52.047Z,97395.19
2023-02-24T14:07:25.778Z,97390.03
2023-02-24T14:09:57.237Z,97386.84
2023-02-24T14:12:26.774Z,97391.59
2023-02-24T14:14:54.098Z,97386.31
2023-02-24T14:17:29.470Z,97380.50
2023-02-24T14:20:07.358Z,97368.88
2023-02-24T14:22:34.754Z,97368.88
2023-02-24T14:25:03.406Z,97370.56
2023-02-24T14:27:30.713Z,97358.63
2023-02-24T14:29:57.611Z,97363.44
2023-02-24T14:32:26.734Z,97360.97
2023-02-24T14:34:54.972Z,97361.69
2023-02-24T14:37:25.999Z,97361.34
2023-02-24T14:39:59.539Z,97360.09
2023-02-24T14:42:28.003Z,97355.66
2023-02-24T14:44:57.728Z,97365.31
2023-02-24T14:47:27.953Z,97373.22
2023-02-24T14:50:02.493Z,97357.38
2023-02-24T14:52:44.985Z,97364.81
2023-02-24T14:55:20.948Z,97363.63
2023-02-24T14:58:01.885Z,97360.50
2023-02-24T15:00:37.018Z,97353.59
2023-02-24T15:03:09.363Z,97360.00
2023-02-24T15:05:41.471Z,97362.22
2023-02-24T15:08:29.413Z,97360.81
2023-02-24T15:10:56.322Z,97356.00
2023-02-24T15:13:44.827Z,97349.69
2023-02-24T15:16:18.061Z,97353.78
2023-02-24T15:18:49.371Z,97354.00
2023-02-24T15:21:28.619Z,97358.81
2023-02-24T15:24:03.492Z,97355.91
2023-02-24T15:26:33.850Z,97351.19
2023-02-24T15:29:13.986Z,97357.31
2023-02-24T15:31:47.216Z,97343.56
2023-02-24T15:34:22.356Z,97343.28
2023-02-24T15:36:51.271Z,97339.38
2023-02-24T15:39:23.224Z,97333.94
2023-02-24T15:41:52.415Z,97336.66
2023-02-24T15:44:52.936Z,97330.03
2023-02-24T15:47:32.625Z,97323.91
2023-02-24T15:49:59.406Z,97330.13
2023-02-24T15:52:28.685Z,97326.84
2023-02-24T15:54:57.961Z,97330.03
2023-02-24T15:57:25.680Z,97326.66
2023-02-24T15:59:52.593Z,97318.41
2023-02-24T16:02:21.197Z,97320.63
2023-02-24T16:04:49.025Z,97328.16
2023-02-24T16:07:20.218Z,97322.31
2023-02-24T16:09:48.929Z,97316.09
2023-02-24T16:12:21.837Z,97311.69
2023-02-24T16:14:50.308Z,97304.91
2023-02-24T16:17:32.033Z,97299.88
2023-02-24T16:19:59.189Z,97302.00
2023-02-24T16:22:26.340Z,97298.34
2023-02-24T16:24:52.889Z,97299.28
2023-02-24T16:27:22.063Z,97297.06
2023-02-24T16:29:49.649Z,97296.41
2023-02-24T16:32:16.415Z,97296.09
2023-02-24T16:34:43.085Z,97291.97
2023-02-24T16:37:21.845Z,97287.09
2023-02-24T16:39:49.474Z,97284.53
2023-02-24T16:42:17.650Z,97277.41
2023-02-24T16:44:44.633Z,97298.16
2023-02-24T16:47:17.113Z,97292.84
2023-02-24T16:49:43.669Z,97290.28
2023-02-24T16:52:12.908Z,97286.25
2023-02-24T16:54:39.438Z,97283.06
2023-02-24T16:57:06.174Z,97274.31
2023-02-24T16:59:32.630Z,97285.16
2023-02-24T17:01:59.635Z,97283.94
2023-02-24T17:04:26.200Z,97287.31
2023-02-24T17:06:52.766Z,97289.00
2023-02-24T17:09:19.287Z,97291.88
2023-02-24T17:11:45.928Z,97290.75
2023-02-24T17:14:20.276Z,97274.66
2023-02-24T17:16:47.198Z,97276.50
2023-02-24T17:19:14.141Z,97273.53
2023-02-24T17:21:44.286Z,97267.16
2023-02-24T17:24:19.159Z,97276.84
2023-02-24T17:26:46.574Z,97282.13
2023-02-24T17:29:14.616Z,97281.09
2023-02-24T17:31:42.298Z,97284.63
2023-02-24T17:34:09.430Z,97288.78
2023-02-24T17:36:36.028Z,97295.28
2023-02-24T17:39:02.585Z,97296.13
2023-02-24T17:41:29.481Z,97294.97
2023-02-24T17:43:56.016Z,97305.00
2023-02-24T17:46:23.059Z,97299.63
2023-02-24T17:48:49.842Z,97307.47
2023-02-24T17:51:18.209Z,97304.56
2023-02-24T17:53:45.011Z,97309.38
2023-02-24T17:56:12.175Z,97298.13
2023-02-24T17:58:39.192Z,97300.09
2023-02-24T18:01:06.268Z,97298.75
2023-02-24T18:03:34.595Z,97299.78
2023-02-24T18:06:04.198Z,97296.88
2023-02-24T18:08:33.465Z,97300.88
2023-02-24T18:11:00.870Z,97300.31
2023-02-24T18:13:29.201Z,97295.50
2023-02-24T18:15:56.311Z,97299.34
2023-02-24T18:18:23.806Z,97303.66
2023-02-24T18:20:50.353Z,97306.44
2023-02-24T18:23:17.187Z,97301.03
2023-02-24T18:25:43.734Z,97308.59
2023-02-24T18:28:10.254Z,97306.44
2023-02-24T18:30:39.530Z,97305.38
2023-02-24T18:33:06.343Z,97304.31
2023-02-24T18:35:33.013Z,97305.16
2023-02-24T18:37:59.547Z,97298.97
2023-02-24T18:40:27.075Z,97299.53
2023-02-24T18:42:53.816Z,97299.31
2023-02-24T18:45:21.996Z,97287.19
2023-02-24T18:47:51.487Z,97283.94
2023-02-24T18:50:18.221Z,97285.53
2023-02-24T18:52:44.791Z,97287.69
2023-02-24T18:55:11.260Z,97288.56
2023-02-24T18:57:37.799Z,97294.22
2023-02-24T19:00:05.787Z,97286.22
2023-02-24T19:02:32.371Z,97290.53
2023-02-24T19:04:58.935Z,97286.50
2023-02-24T19:07:25.469Z,97290.47
2023-02-24T19:09:52.128Z,97283.88
2023-02-24T19:12:20.404Z,97288.97
2023-02-24T19:14:51.320Z,97288.97
2023-02-24T19:17:18.113Z,97292.22
2023-02-24T19:19:46.621Z,97293.88
2023-02-24T19:22:13.279Z,97294.47
2023-02-24T19:24:41.057Z,97296.63
2023-02-24T19:27:08.663Z,97295.03
2023-02-24T19:29:35.493Z,97299.31
2023-02-24T19:32:02.167Z,97302.53
2023-02-24T19:34:28.791Z,97303.34
2023-02-24T19:36:55.289Z,97298.75
2023-02-24T19:39:21.989Z,97295.22
2023-02-24T19:41:49.783Z,97301.88
2023-02-24T19:44:16.936Z,97294.09
2023-02-24T19:46:43.495Z,97303.06
2023-02-24T19:49:10.010Z,97305.03
2023-02-24T19:51:36.627Z,97296.50
2023-02-24T19:54:05.889Z,97301.09
2023-02-24T19:56:36.871Z,97315.69
2023-02-24T19:59:06.112Z,97310.91
2023-02-24T20:01:33.219Z,97317.38
2023-02-24T20:04:02.051Z,97320.63
2023-02-24T20:06:37.249Z,97332.81
2023-02-24T20:09:10.205Z,97327.44
2023-02-24T20:11:38.783Z,97333.13
2023-02-24T20:14:06.622Z,97330.75
2023-02-24T20:16:34.801Z,97338.00
2023-02-24T20:19:01.853Z,97340.66
2023-02-24T20:21:28.804Z,97330.50
2023-02-24T20:23:55.355Z,97341.28
2023-02-24T20:26:22.202Z,97345.06
2023-02-24T20:28:49.019Z,97354.22
2023-02-24T20:31:19.196Z,97348.59
2023-02-24T20:33:47.744Z,97349.94
2023-02-24T20:36:26.026Z,97346.44
2023-02-24T20:38:53.511Z,97349.63
2023-02-24T20:41:21.570Z,97348.53
2023-02-24T20:43:48.565Z,97348.28
2023-02-24T20:46:18.980Z,97344.56
2023-02-24T20:48:45.682Z,97347.50
2023-02-24T20:51:12.637Z,97346.19
2023-02-24T20:53:54.725Z,97347.03
2023-02-24T20:56:23.790Z,97346.75
2023-02-24T20:58:53.054Z,97351.59
2023-02-24T21:01:21.145Z,97353.50
2023-02-24T21:03:48.277Z,97351.31
2023-02-24T21:06:17.132Z,97359.38
2023-02-24T21:08:44.447Z,97366.63
2023-02-24T21:11:12.095Z,97358.31
2023-02-24T21:13:43.864Z,97357.53
2023-02-24T21:16:11.847Z,97358.09
2023-02-24T21:18:40.391Z,97359.69
2023-02-24T21:21:08.484Z,97367.22
2023-02-24T21:23:35.879Z,97365.59
2023-02-24T21:26:02.711Z,97357.28
2023-02-24T21:28:29.403Z,97366.94
2023-02-24T21:30:56.534Z,97348.13
2023-02-24T21:33:23.170Z,97347.88
2023-02-24T21:36:00.753Z,97354.31
2023-02-24T21:38:27.266Z,97354.59
2023-02-24T21:40:54.312Z,97355.66
2023-02-24T21:43:21.745Z,97361.84
2023-02-24T21:45:48.308Z,97363.97
2023-02-24T21:48:14.905Z,97366.13
2023-02-24T21:50:41.433Z,97372.84
2023-02-24T21:53:08.087Z,97377.41
2023-02-24T21:55:37.056Z,97390.28
2023-02-24T21:58:03.556Z,97393.53
2023-02-24T22:00:30.314Z,97392.47
2023-02-24T22:02:57.026Z,97394.03
2023-02-24T22:05:25.813Z,97389.75
2023-02-24T22:07:53.057Z,97388.63
2023-02-24T22:10:22.377Z,97387.56
2023-02-24T22:12:50.741Z,97385.91
2023-02-24T22:15:17.349Z,97382.69
2023-02-24T22:17:43.853Z,97387.00
2023-02-24T22:20:13.346Z,97375.72
2023-02-24T22:22:41.933Z,97383.47
2023-02-24T22:25:12.511Z,97377.88
2023-02-24T22:27:39.721Z,97392.88
2023-02-24T22:30:08.015Z,97393.41
2023-02-24T22:32:35.612Z,97396.66
2023-02-24T22:35:02.263Z,97403.38
2023-02-24T22:37:29.849Z,97403.09
2023-02-24T22:39:56.454Z,97405.75
2023-02-24T22:42:23.033Z,97401.41
2023-02-24T22:44:49.506Z,97393.66
2023-02-24T22:47:16.946Z,97396.06
2023-02-24T22:49:43.645Z,97406.00
2023-02-24T22:52:12.047Z,97412.44
2023-02-24T22:54:38.578Z,97413.81
2023-02-24T22:57:05.201Z,97420.81
2023-02-24T22:59:31.708Z,97417.84
2023-02-24T23:01:59.766Z,97431.25
2023-02-24T23:04:29.269Z,97449.47
2023-02-24T23:06:57.201Z,97442.69
2023-02-24T23:09:24.139Z,97457.06
2023-02-24T23:11:50.902Z,97467.53
2023-02-24T23:14:17.799Z,97461.25
2023-02-24T23:16:46.456Z,97447.25
2023-02-24T23:19:18.568Z,97456.31
2023-02-24T23:21:51.174Z,97448.72
2023-02-24T23:24:18.606Z,97462.25
2023-02-24T23:26:47.867Z,97464.09
2023-02-24T23:29:17.526Z,97472.59
2023-02-24T23:31:45.391Z,97475.50
2023-02-24T23:34:12.531Z,97470.75
2023-02-24T23:36:45.253Z,97483.88
2023-02-24T23:39:14.392Z,97482.50
2023-02-24T23:41:44.307Z,97487.97
2023-02-24T23:44:12.524Z,97497.25
2023-02-24T23:46:39.135Z,97492.88
2023-02-24T23:49:05.734Z,97484.78
2023-02-24T23:51:46.899Z,97492.38
2023-02-24T23:54:13.927Z,97496.09
2023-02-24T23:56:41.129Z,97504.34
2023-02-24T23:59:07.646Z,97519.19
